Time;durP1;ratioP1;P1;durP2;ratioP2;P2;SDS_P1;SDS_P2;PMS_P1;PMS_P2;Temp;Humidity;BMP_temperature;BMP_pressure;BME280_temperature;BME280_humidity;BME280_pressure;Samples;Min_cycle;Max_cycle;Signal;HPM_P1;HPM_P2
2024/03/01 00:02:15;;;;;;;140.57;74.57;;;;;;;8.36;88.44;99759.25;6130632;22;96765;-89
2024/03/01 00:04:42;;;;;;;134.10;75.07;;;;;;;8.40;88.81;99746.94;6129704;22;99224;-88
2024/03/01 00:07:07;;;;;;;136.30;72.95;;;;;;;8.53;88.20;99760.47;6107326;22;99411;-87
2024/03/01 00:09:32;;;;;;;133.23;72.50;;;;;;;8.32;88.43;99725.38;6132315;22;96721;-87
2024/03/01 00:11:59;;;;;;;135.90;75.80;;;;;;;8.44;88.53;99755.56;6157235;22;96835;-87
2024/03/01 00:14:24;;;;;;;138.80;75.93;;;;;;;8.43;88.79;99748.59;6130803;22;100606;-88
2024/03/01 00:16:50;;;;;;;138.95;77.97;;;;;;;8.38;88.84;99760.09;6131070;22;98786;-89
2024/03/01 00:19:16;;;;;;;141.00;75.72;;;;;;;8.22;89.08;99721.38;6183503;22;97058;-88
2024/03/01 00:21:41;;;;;;;129.95;75.43;;;;;;;8.50;89.13;99768.41;6192433;22;96930;-88
2024/03/01 00:24:07;;;;;;;136.30;73.55;;;;;;;8.28;89.05;99719.41;6161446;22;100889;-88
2024/03/01 00:26:33;;;;;;;138.88;76.20;;;;;;;8.30;88.55;99720.22;6161566;22;100038;-88
2024/03/01 00:28:59;;;;;;;139.98;74.97;;;;;;;8.47;88.83;99747.59;6136592;22;96656;-88
2024/03/01 00:31:25;;;;;;;137.20;76.03;;;;;;;8.54;88.20;99751.69;6162254;22;96729;-88
2024/03/01 00:33:51;;;;;;;135.95;73.15;;;;;;;8.61;88.30;99764.53;6161211;22;99490;-88
2024/03/01 00:36:16;;;;;;;132.60;74.20;;;;;;;8.41;88.03;99729.47;6136633;22;99944;-88
2024/03/01 00:38:42;;;;;;;140.25;77.10;;;;;;;8.68;87.92;99748.63;6160928;22;96803;-88
2024/03/01 00:41:07;;;;;;;130.35;72.32;;;;;;;8.76;87.32;99752.66;6161388;22;96998;-87
2024/03/01 00:43:33;;;;;;;137.80;76.45;;;;;;;8.50;87.36;99714.34;6135806;22;99687;-89
2024/03/01 00:45:59;;;;;;;128.45;74.22;;;;;;;8.51;86.86;99712.56;6160851;22;100172;-88
2024/03/01 00:48:25;;;;;;;133.57;75.03;;;;;;;8.67;87.52;99741.66;6161602;22;96617;-88
2024/03/01 00:50:50;;;;;;;126.13;73.55;;;;;;;8.78;87.08;99742.13;6186469;22;96701;-88
2024/03/01 00:53:16;;;;;;;129.30;76.35;;;;;;;8.70;86.49;99720.63;6162304;22;97400;-88
2024/03/01 00:55:42;;;;;;;132.18;74.13;;;;;;;8.66;87.14;99725.09;6213667;22;99180;-88
2024/03/01 00:58:08;;;;;;;140.20;75.60;;;;;;;8.48;86.59;99697.84;6138178;22;97289;-88
2024/03/01 01:00:33;;;;;;;137.63;76.55;;;;;;;8.49;87.16;99694.28;6162941;22;96708;-88
2024/03/01 01:02:59;;;;;;;133.93;75.47;;;;;;;8.68;86.77;99709.38;6161921;22;99003;-88
2024/03/01 01:05:25;;;;;;;124.88;73.00;;;;;;;8.54;86.69;99686.31;6162159;22;96709;-88
2024/03/01 01:07:50;;;;;;;126.55;74.38;;;;;;;8.73;86.67;99716.13;6137739;22;96674;-87
2024/03/01 01:10:16;;;;;;;128.02;72.05;;;;;;;8.63;86.26;99698.19;6162378;22;97054;-89
2024/03/01 01:12:42;;;;;;;138.57;77.63;;;;;;;8.64;86.51;99710.38;6162075;22;100649;-88
2024/03/01 01:15:08;;;;;;;128.30;72.35;;;;;;;8.61;86.46;99709.59;6136729;22;100591;-88
2024/03/01 01:17:33;;;;;;;122.07;69.97;;;;;;;8.62;86.35;99689.50;6187784;22;96929;-89
2024/03/01 01:19:59;;;;;;;132.50;73.07;;;;;;;8.44;86.36;99669.25;6162433;22;96854;-89
2024/03/01 01:22:26;;;;;;;125.07;72.35;;;;;;;8.61;87.18;99688.66;6137068;22;99175;-88
2024/03/01 01:24:52;;;;;;;128.25;74.93;;;;;;;8.47;86.76;99663.91;6162045;22;100222;-87
2024/03/01 01:27:18;;;;;;;125.78;69.60;;;;;;;8.48;86.59;99662.97;6162396;22;96695;-88
2024/03/01 01:29:43;;;;;;;113.90;69.07;;;;;;;8.57;86.30;99670.50;6162993;22;96689;-88
2024/03/01 01:32:09;;;;;;;120.90;69.63;;;;;;;8.61;86.31;99672.09;6162556;22;96732;-88
2024/03/01 01:34:34;;;;;;;113.82;67.13;;;;;;;8.55;85.46;99654.00;6137180;22;100765;-89
2024/03/01 01:37:00;;;;;;;115.40;67.43;;;;;;;8.61;85.94;99664.25;6187578;22;96768;-88
2024/03/01 01:39:26;;;;;;;108.22;65.22;;;;;;;8.62;85.22;99668.56;6161247;22;97043;-88
2024/03/01 01:41:51;;;;;;;115.30;66.90;;;;;;;8.43;85.84;99639.59;6187420;22;97495;-88
2024/03/01 01:44:17;;;;;;;113.78;65.70;;;;;;;8.41;85.53;99623.13;6162150;22;100380;-89
2024/03/01 01:46:48;;;;;;;109.40;67.25;;;;;;;8.30;85.41;99612.16;6188427;22;96618;-88
2024/03/01 01:49:14;;;;;;;119.13;67.30;;;;;;;8.64;85.17;99655.41;6162663;22;96678;-88
2024/03/01 01:51:40;;;;;;;118.00;67.30;;;;;;;8.71;85.23;99670.00;6161423;22;100426;-89
2024/03/01 01:54:08;;;;;;;109.88;65.30;;;;;;;8.46;85.47;99636.88;6187681;22;97848;-88
2024/03/01 01:56:34;;;;;;;113.25;65.68;;;;;;;8.62;85.10;99645.03;6137105;22;96812;-88
2024/03/01 01:59:00;;;;;;;108.13;63.90;;;;;;;8.34;85.14;99598.06;6162838;22;97095;-89
2024/03/01 02:01:25;;;;;;;118.18;68.85;;;;;;;8.25;85.63;99603.63;6187330;22;97717;-88
2024/03/01 02:03:51;;;;;;;112.68;64.30;;;;;;;8.35;85.31;99632.00;6136564;22;100093;-88
2024/03/01 02:06:19;;;;;;;116.38;68.40;;;;;;;8.39;85.48;99625.78;6188507;22;96723;-88
2024/03/01 02:08:44;;;;;;;103.13;64.70;;;;;;;8.45;85.52;99640.41;6163555;22;96714;-89
2024/03/01 02:11:10;;;;;;;107.28;64.85;;;;;;;8.41;85.88;99630.97;6136910;22;100174;-88
2024/03/01 02:13:35;;;;;;;115.25;67.40;;;;;;;8.44;85.68;99637.84;6160950;22;99975;-88
2024/03/01 02:16:01;;;;;;;115.25;65.10;;;;;;;8.28;85.87;99608.75;6134961;22;96743;-88
2024/03/01 02:18:27;;;;;;;109.47;65.65;;;;;;;8.25;85.34;99585.31;6161313;22;97044;-88
2024/03/01 02:21:02;;;;;;;112.60;65.13;;;;;;;8.58;85.63;99636.44;6161129;22;98124;-88
2024/03/01 02:23:28;;;;;;;114.38;65.93;;;;;;;8.43;85.09;99609.97;6160452;22;100774;-88
2024/03/01 02:25:53;;;;;;;108.72;64.28;;;;;;;8.55;85.03;99623.47;6161427;22;96679;-88
2024/03/01 02:28:19;;;;;;;108.20;64.50;;;;;;;8.50;85.33;99619.31;6187786;22;96711;-88
2024/03/01 02:30:44;;;;;;;115.13;68.35;;;;;;;8.44;85.69;99622.16;6161971;22;97708;-88
2024/03/01 02:33:10;;;;;;;112.72;67.90;;;;;;;8.29;85.37;99577.31;6137639;22;100358;-88
2024/03/01 02:35:36;;;;;;;119.70;66.95;;;;;;;8.14;85.50;99564.78;6136723;22;97050;-87
2024/03/01 02:38:02;;;;;;;107.43;65.38;;;;;;;8.29;85.45;99590.41;6162978;22;97086;-88
2024/03/01 02:40:27;;;;;;;115.72;67.28;;;;;;;8.45;85.78;99595.94;6161055;22;99138;-89
2024/03/01 02:42:53;;;;;;;113.60;66.78;;;;;;;8.42;85.85;99593.44;6137079;22;100515;-89
2024/03/01 02:45:18;;;;;;;109.47;64.05;;;;;;;8.47;85.26;99582.81;6161858;22;96696;-88
2024/03/01 02:47:44;;;;;;;107.60;64.68;;;;;;;8.49;84.85;99586.22;6188110;22;96684;-88
2024/03/01 02:50:09;;;;;;;110.55;64.90;;;;;;;8.29;85.09;99563.38;6214001;22;97690;-88
2024/03/01 02:52:35;;;;;;;110.40;62.65;;;;;;;8.47;84.40;99581.03;6161851;22;100190;-88
2024/03/01 02:55:02;;;;;;;99.40;60.35;;;;;;;8.38;84.36;99570.91;6162399;22;96849;-88
2024/03/01 02:57:28;;;;;;;107.85;64.20;;;;;;;8.61;84.15;99581.38;6162544;22;96622;-88
2024/03/01 02:59:53;;;;;;;93.70;58.38;;;;;;;8.49;83.51;99539.13;6212494;22;100422;-88
2024/03/01 03:02:19;;;;;;;96.88;60.08;;;;;;;8.42;83.36;99507.13;6136708;22;99914;-88
2024/03/01 03:04:45;;;;;;;99.82;59.85;;;;;;;8.81;82.80;99559.69;6136294;22;96653;-88
2024/03/01 03:07:10;;;;;;;98.85;59.85;;;;;;;8.80;82.44;99560.59;6137147;22;97057;-88
2024/03/01 03:09:41;;;;;;;101.70;59.80;;;;;;;8.69;82.74;99559.28;6136825;22;99812;-88
2024/03/01 03:12:06;;;;;;;99.80;61.25;;;;;;;8.73;82.52;99564.38;6162460;22;96972;-88
2024/03/01 03:14:32;;;;;;;100.60;60.28;;;;;;;8.79;82.21;99560.66;6136413;22;97058;-88
2024/03/01 03:16:57;;;;;;;96.90;59.03;;;;;;;8.50;81.91;99527.78;6137481;22;96825;-88
2024/03/01 03:19:23;;;;;;;93.70;56.88;;;;;;;8.82;81.83;99573.63;6187046;22;97715;-88
2024/03/01 03:21:49;;;;;;;93.78;58.70;;;;;;;8.51;81.74;99519.84;6136795;22;100445;-86
2024/03/01 03:24:14;;;;;;;99.15;59.50;;;;;;;8.84;81.80;99571.78;6162021;22;96647;-88
2024/03/01 03:26:40;;;;;;;93.60;56.55;;;;;;;8.78;81.72;99570.25;6136545;22;96766;-88
2024/03/01 03:29:05;;;;;;;92.82;57.20;;;;;;;8.75;81.99;99559.91;6186374;22;100322;-88
2024/03/01 03:31:31;;;;;;;96.90;57.22;;;;;;;8.75;82.00;99544.22;6161961;22;97913;-88
2024/03/01 03:33:57;;;;;;;89.72;56.15;;;;;;;8.70;81.72;99556.63;6187592;22;96645;-88
2024/03/01 03:36:22;;;;;;;91.88;58.03;;;;;;;8.48;81.70;99511.28;6162179;22;96672;-88
2024/03/01 03:38:48;;;;;;;89.88;56.55;;;;;;;8.84;81.52;99559.56;6161218;22;98085;-88
2024/03/01 03:41:13;;;;;;;89.90;56.05;;;;;;;8.73;81.76;99553.91;6136719;22;100226;-88
2024/03/01 03:43:39;;;;;;;90.00;55.53;;;;;;;8.92;81.33;99564.50;6136682;22;96772;-87
2024/03/01 03:46:05;;;;;;;97.65;58.67;;;;;;;8.71;80.64;99528.69;6162028;22;96812;-88
2024/03/01 03:48:30;;;;;;;96.13;56.63;;;;;;;8.90;80.10;99550.63;6187009;22;97525;-88
2024/03/01 03:50:57;;;;;;;94.10;56.50;;;;;;;8.81;80.42;99545.72;6136512;22;100206;-88
2024/03/01 03:53:22;;;;;;;91.90;54.63;;;;;;;8.91;80.88;99560.19;6136555;22;96634;-88
2024/03/01 03:55:48;;;;;;;91.97;57.08;;;;;;;8.82;80.23;99531.75;6137240;22;96651;-88
2024/03/01 03:58:13;;;;;;;91.90;57.28;;;;;;;9.00;80.31;99564.19;6161364;22;100378;-88
2024/03/01 04:00:39;;;;;;;92.47;56.92;;;;;;;8.83;80.05;99541.31;6161239;22;101018;-88
2024/03/01 04:03:04;;;;;;;89.28;52.55;;;;;;;8.95;79.48;99559.13;6136628;22;97124;-88
2024/03/01 04:05:30;;;;;;;89.30;53.40;;;;;;;8.84;79.89;99536.03;6162110;22;96957;-88
2024/03/01 04:07:55;;;;;;;93.45;54.13;;;;;;;8.99;79.45;99560.75;6186363;22;97882;-88
2024/03/01 04:10:22;;;;;;;88.00;54.88;;;;;;;8.94;79.46;99551.34;6136994;22;99713;-88
2024/03/01 04:12:48;;;;;;;91.50;54.65;;;;;;;8.91;79.32;99562.78;6161909;22;96640;-88
2024/03/01 04:15:14;;;;;;;88.78;54.00;;;;;;;8.89;79.93;99562.00;6136785;22;96747;-88
2024/03/01 04:17:41;;;;;;;86.72;53.30;;;;;;;8.83;79.85;99539.53;6160580;22;100247;-88
2024/03/01 04:20:07;;;;;;;91.57;55.13;;;;;;;8.80;79.80;99557.97;6160938;22;100419;-88
2024/03/01 04:22:33;;;;;;;85.95;55.95;;;;;;;8.72;80.01;99554.78;6144617;22;97217;-87
2024/03/01 04:25:00;;;;;;;87.63;54.47;;;;;;;8.67;80.62;99561.13;6106890;22;96820;-88
2024/03/01 04:27:26;;;;;;;88.28;54.70;;;;;;;8.56;81.23;99566.78;6130699;22;99302;-88
2024/03/01 04:29:51;;;;;;;89.85;55.13;;;;;;;8.47;81.13;99544.44;6157106;22;96953;-88
2024/03/01 04:32:17;;;;;;;90.05;56.38;;;;;;;8.48;81.40;99545.28;6132918;22;96987;-88
2024/03/01 04:34:44;;;;;;;86.63;55.97;;;;;;;8.38;81.24;99523.81;6133477;22;96676;-88
2024/03/01 04:37:12;;;;;;;94.95;55.85;;;;;;;8.58;81.39;99565.81;6157544;22;97072;-88
2024/03/01 04:39:37;;;;;;;90.57;57.15;;;;;;;8.49;81.79;99558.28;6132517;22;97492;-87
2024/03/01 04:42:03;;;;;;;91.68;57.95;;;;;;;8.37;82.15;99538.63;6132106;22;97225;-88
2024/03/01 04:44:29;;;;;;;98.80;58.70;;;;;;;8.40;82.33;99558.63;6107133;22;96928;-88
2024/03/01 04:46:56;;;;;;;98.28;57.28;;;;;;;8.44;82.79;99559.41;6132117;22;97734;-88
2024/03/01 04:49:21;;;;;;;94.70;57.15;;;;;;;8.33;82.86;99547.53;6132485;22;100336;-87
2024/03/01 04:51:47;;;;;;;97.78;57.53;;;;;;;8.51;82.57;99568.69;6107564;22;96718;-88
2024/03/01 04:54:13;;;;;;;100.13;60.83;;;;;;;8.25;82.24;99525.19;6132629;22;96610;-88
2024/03/01 04:56:38;;;;;;;95.78;58.60;;;;;;;8.16;82.45;99519.38;6107306;22;100407;-88
2024/03/01 04:59:08;;;;;;;93.65;56.97;;;;;;;8.50;82.65;99569.63;6108205;22;98842;-88
2024/03/01 05:01:39;;;;;;;96.47;58.10;;;;;;;8.58;82.47;99570.16;6108673;22;96608;-88
2024/03/01 05:04:08;;;;;;;100.43;57.60;;;;;;;8.64;81.84;99563.84;6133255;22;96912;-88
2024/03/01 05:06:37;;;;;;;95.63;56.05;;;;;;;8.67;81.77;99571.56;6107241;22;99851;-88
2024/03/01 05:09:03;;;;;;;98.70;59.05;;;;;;;8.65;82.40;99576.03;6131467;22;100567;-86
2024/03/01 05:11:33;;;;;;;100.72;58.95;;;;;;;8.76;81.95;99576.50;6106792;22;96633;-88
2024/03/01 05:14:00;;;;;;;95.22;55.72;;;;;;;8.67;81.68;99548.03;6158245;22;96620;-87
2024/03/01 05:16:25;;;;;;;88.63;54.45;;;;;;;8.73;81.27;99559.13;6131269;22;97751;-87
2024/03/01 05:18:51;;;;;;;92.15;56.55;;;;;;;8.93;81.06;99575.81;6131916;22;98396;-87
2024/03/01 05:21:16;;;;;;;96.10;56.63;;;;;;;8.86;80.82;99563.88;6110637;22;97139;-87
2024/03/01 05:23:42;;;;;;;96.00;57.47;;;;;;;9.07;80.51;99581.34;6137816;22;96771;-86
2024/03/01 05:26:09;;;;;;;99.00;57.75;;;;;;;8.96;80.54;99555.63;6136777;22;99023;-87
2024/03/01 05:28:35;;;;;;;90.75;55.83;;;;;;;9.13;79.95;99586.34;6212169;22;99770;-86
2024/03/01 05:31:01;;;;;;;94.18;56.90;;;;;;;9.16;80.10;99580.13;6213303;22;96973;-87
2024/03/01 05:33:28;;;;;;;92.13;56.83;;;;;;;8.75;80.22;99538.13;6160476;22;97076;-86
2024/03/01 05:35:53;;;;;;;96.07;58.55;;;;;;;8.90;80.14;99555.88;6160057;22;99960;-85
2024/03/01 05:38:19;;;;;;;93.53;58.08;;;;;;;9.25;79.22;99600.72;6134780;22;98696;-85
2024/03/01 05:40:44;;;;;;;96.65;55.28;;;;;;;9.23;79.30;99595.56;6134912;22;96663;-87
2024/03/01 05:43:10;;;;;;;97.75;57.97;;;;;;;9.19;79.16;99590.50;6136083;22;96874;-87
2024/03/01 05:45:36;;;;;;;97.85;56.67;;;;;;;9.12;79.56;99583.81;6134748;22;100433;-87
2024/03/01 05:48:03;;;;;;;95.40;58.30;;;;;;;8.91;80.48;99591.59;6161192;22;97849;-87
2024/03/01 05:50:28;;;;;;;95.88;57.72;;;;;;;8.80;81.07;99599.84;6161587;22;97110;-86
2024/03/01 05:52:54;;;;;;;105.35;59.38;;;;;;;8.66;81.18;99580.34;6136529;22;96732;-85
2024/03/01 05:55:19;;;;;;;101.72;58.38;;;;;;;8.66;81.62;99573.34;6186443;22;97335;-86
2024/03/01 05:57:46;;;;;;;95.82;58.67;;;;;;;8.77;81.25;99599.97;6136124;22;99043;-87
2024/03/01 06:00:18;;;;;;;97.15;58.03;;;;;;;8.88;80.91;99585.63;6161005;22;97001;-76
2024/03/01 06:02:47;;;;;;;90.10;56.03;;;;;;;9.02;80.32;99593.81;6135332;22;96932;-77
2024/03/01 06:05:16;;;;;;;93.25;56.97;;;;;;;8.95;80.33;99592.31;6159840;22;99548;-82
2024/03/01 06:07:43;;;;;;;96.03;57.75;;;;;;;8.80;80.36;99588.53;6159372;22;97466;-86
2024/03/01 06:10:08;;;;;;;89.40;56.67;;;;;;;8.70;80.70;99572.34;6160905;22;96674;-84
2024/03/01 06:12:35;;;;;;;92.57;56.58;;;;;;;8.53;81.02;99574.75;6135881;22;96665;-86
2024/03/01 06:15:01;;;;;;;92.13;55.63;;;;;;;8.61;81.01;99573.53;6160748;22;100491;-86
2024/03/01 06:17:26;;;;;;;105.05;61.55;;;;;;;8.60;81.61;99592.75;6135978;22;100430;-87
2024/03/01 06:19:53;;;;;;;97.63;59.03;;;;;;;8.57;81.93;99594.63;6185902;22;96842;-87
2024/03/01 06:22:19;;;;;;;99.25;60.10;;;;;;;8.44;82.29;99578.53;6154844;22;96760;-87
2024/03/01 06:24:44;;;;;;;100.57;61.17;;;;;;;8.27;82.41;99562.59;6180519;22;97751;-87
2024/03/01 06:27:10;;;;;;;103.78;61.20;;;;;;;8.45;82.34;99579.41;6150908;22;99118;-87
2024/03/01 06:29:35;;;;;;;104.25;59.75;;;;;;;8.37;82.03;99563.94;6128297;22;97232;-87
2024/03/01 06:32:01;;;;;;;94.68;59.85;;;;;;;8.58;81.82;99593.72;6126688;22;97002;-86
2024/03/01 06:34:26;;;;;;;95.47;58.22;;;;;;;8.57;82.33;99578.94;6156269;22;97030;-87
2024/03/01 06:36:52;;;;;;;97.53;58.67;;;;;;;8.70;81.25;99595.88;6156582;22;100877;-87
2024/03/01 06:39:18;;;;;;;97.07;59.80;;;;;;;8.51;81.25;99555.63;6131587;22;96811;-86
2024/03/01 06:41:47;;;;;;;104.57;59.92;;;;;;;8.71;81.10;99588.88;6155931;22;96717;-87
2024/03/01 06:44:12;;;;;;;94.72;58.92;;;;;;;8.53;80.56;99564.28;6155289;22;101000;-86
2024/03/01 06:46:38;;;;;;;97.90;58.28;;;;;;;8.68;80.39;99571.53;6130267;22;100203;-87
2024/03/01 06:49:03;;;;;;;98.25;59.95;;;;;;;8.69;80.15;99561.91;6181322;22;96652;-87
2024/03/01 06:51:29;;;;;;;104.13;58.10;;;;;;;8.86;79.94;99563.88;6154253;22;96974;-87
2024/03/01 06:53:55;;;;;;;101.00;57.92;;;;;;;8.93;79.75;99571.44;6130240;22;100425;-86
2024/03/01 06:56:21;;;;;;;91.50;58.20;;;;;;;8.60;79.53;99548.25;6179158;22;96602;-90
2024/03/01 06:58:47;;;;;;;100.95;61.22;;;;;;;8.70;79.82;99568.88;6154794;22;97093;-87
2024/03/01 07:01:16;;;;;;;99.15;58.88;;;;;;;8.91;80.03;99588.97;6156332;22;97356;-88
2024/03/01 07:03:41;;;;;;;101.20;58.53;;;;;;;9.01;78.88;99573.75;6156504;22;100502;-88
2024/03/01 07:06:07;;;;;;;107.93;61.28;;;;;;;8.97;79.50;99582.66;6131593;22;100691;-84
2024/03/01 07:08:32;;;;;;;94.20;57.42;;;;;;;9.05;79.58;99577.97;6129838;22;97067;-84
2024/03/01 07:10:58;;;;;;;95.43;59.17;;;;;;;9.28;78.48;99579.66;6180457;22;96974;-83
2024/03/01 07:13:24;;;;;;;97.68;57.00;;;;;;;9.29;78.16;99570.88;6180436;22;97340;-82
2024/03/01 07:15:50;;;;;;;100.65;57.40;;;;;;;9.17;78.32;99556.53;6154448;22;97274;-83
2024/03/01 07:18:15;;;;;;;98.07;59.42;;;;;;;9.35;78.33;99575.88;6155630;22;96811;-84
2024/03/01 07:20:41;;;;;;;97.43;58.65;;;;;;;9.19;77.92;99562.56;6154680;22;96933;-84
2024/03/01 07:23:06;;;;;;;96.78;57.92;;;;;;;9.31;78.53;99569.06;6154065;22;102060;-84
2024/03/01 07:25:32;;;;;;;93.25;56.58;;;;;;;9.27;77.92;99560.47;6154922;22;100329;-84
2024/03/01 07:27:57;;;;;;;91.68;57.05;;;;;;;9.49;77.37;99564.84;6130261;22;97191;-84
2024/03/01 07:30:23;;;;;;;94.85;56.83;;;;;;;9.20;77.28;99524.97;6180079;22;97117;-84
2024/03/01 07:32:48;;;;;;;99.65;57.20;;;;;;;9.45;77.65;99568.47;6154439;22;100299;-84
2024/03/01 07:35:16;;;;;;;96.68;56.13;;;;;;;9.66;76.90;99566.75;6154428;22;100506;-84
2024/03/01 07:37:41;;;;;;;97.68;57.80;;;;;;;9.70;76.67;99558.69;6155003;22;97117;-84
2024/03/01 07:40:07;;;;;;;90.88;55.25;;;;;;;9.56;76.49;99560.19;6155530;22;96683;-84
2024/03/01 07:42:33;;;;;;;92.07;54.58;;;;;;;9.65;76.82;99565.88;6154544;22;98313;-83
2024/03/01 07:44:58;;;;;;;91.93;56.40;;;;;;;9.55;77.10;99540.16;6129502;22;100419;-84
2024/03/01 07:47:29;;;;;;;94.25;54.83;;;;;;;9.86;76.33;99550.16;6151919;22;97151;-83
2024/03/01 07:49:56;;;;;;;90.00;52.85;;;;;;;9.82;76.40;99541.56;6130149;22;97068;-83
2024/03/01 07:52:21;;;;;;;88.07;53.53;;;;;;;9.93;76.02;99554.22;6151981;22;100535;-84
2024/03/01 07:54:47;;;;;;;88.25;51.78;;;;;;;10.10;75.35;99537.75;6127272;22;100316;-86
2024/03/01 07:57:14;;;;;;;87.75;54.13;;;;;;;10.19;75.10;99539.97;6151961;22;96713;-83
2024/03/01 07:59:40;;;;;;;86.63;51.30;;;;;;;10.20;74.83;99554.78;6178101;22;96787;-84
2024/03/01 08:02:08;;;;;;;84.22;50.17;;;;;;;10.19;74.84;99553.09;6178235;22;97903;-86
2024/03/01 08:04:34;;;;;;;91.55;54.90;;;;;;;10.20;75.07;99557.41;6127203;22;100247;-82
2024/03/01 08:07:00;;;;;;;88.05;55.13;;;;;;;10.27;74.71;99563.25;6153356;22;97185;-83
2024/03/01 08:09:36;;;;;;;85.32;51.83;;;;;;;10.12;74.71;99549.91;6153086;22;97356;-83
2024/03/01 08:12:05;;;;;;;87.00;52.42;;;;;;;10.19;74.92;99542.59;6176869;22;97542;-83
2024/03/01 08:14:32;;;;;;;81.25;50.15;;;;;;;10.25;74.37;99560.69;6150536;22;100435;-82
2024/03/01 08:16:58;;;;;;;84.50;52.00;;;;;;;10.22;75.10;99563.44;6126171;22;96667;-82
2024/03/01 08:19:44;;;;;;;86.20;51.05;;;;;;;10.31;75.05;99549.94;6126036;22;96781;-83
2024/03/01 08:22:19;;;;;;;84.95;51.42;;;;;;;10.23;75.22;99549.38;6140686;22;99517;-83
2024/03/01 08:24:49;;;;;;;89.10;52.05;;;;;;;10.35;74.82;99548.88;6151992;22;97440;-81
2024/03/01 08:27:16;;;;;;;93.22;54.08;;;;;;;10.24;74.96;99535.38;6154465;22;96932;-82
2024/03/01 08:29:42;;;;;;;83.53;51.70;;;;;;;10.31;74.80;99542.06;6150284;22;97175;-84
2024/03/01 08:32:35;;;;;;;96.10;53.35;;;;;;;10.29;74.80;99535.19;6151682;22;98016;-82
2024/03/01 08:35:01;;;;;;;83.93;51.45;;;;;;;10.42;74.51;99528.47;6151531;22;97513;-82
2024/03/01 08:37:31;;;;;;;93.75;53.70;;;;;;;10.54;73.87;99529.69;6150908;22;97117;-82
2024/03/01 08:39:57;;;;;;;92.93;52.25;;;;;;;10.51;74.21;99533.28;6127141;22;97186;-82
2024/03/01 08:42:24;;;;;;;78.20;49.17;;;;;;;10.68;73.81;99529.03;6125618;22;97633;-83
2024/03/01 08:44:59;;;;;;;81.95;49.00;;;;;;;10.55;73.84;99510.38;6100741;22;99977;-81
2024/03/01 08:47:34;;;;;;;79.57;49.28;;;;;;;10.73;73.17;99527.88;6125267;22;97039;-83
2024/03/01 08:50:34;;;;;;;79.28;47.67;;;;;;;10.86;72.83;99533.41;6125910;22;97262;-82
2024/03/01 08:53:00;;;;;;;77.70;47.78;;;;;;;10.64;73.04;99521.28;6123656;22;97916;-82
2024/03/01 08:55:26;;;;;;;76.80;46.25;;;;;;;10.88;73.05;99535.03;6101211;22;100485;-84
2024/03/01 08:57:55;;;;;;;78.25;49.00;;;;;;;10.92;72.48;99520.00;6178231;22;97130;-85
2024/03/01 09:00:26;;;;;;;79.63;46.35;;;;;;;10.88;72.42;99529.78;6125384;22;96892;-84
2024/03/01 09:02:53;;;;;;;82.50;48.72;;;;;;;10.82;72.67;99531.84;6149340;22;100673;-83
2024/03/01 09:05:21;;;;;;;74.40;45.47;;;;;;;10.85;72.62;99536.97;6101662;22;100633;-84
2024/03/01 09:07:47;;;;;;;70.47;44.83;;;;;;;10.92;72.30;99538.38;6127492;22;96733;-83
2024/03/01 09:10:32;;;;;;;75.03;44.88;;;;;;;10.98;72.05;99526.72;6126890;22;97161;-81
2024/03/01 09:12:58;;;;;;;72.78;43.67;;;;;;;10.88;72.46;99532.41;6125337;22;100760;-84
2024/03/01 09:15:25;;;;;;;79.13;46.20;;;;;;;10.92;72.10;99522.63;6126635;22;100635;-81
2024/03/01 09:17:52;;;;;;;74.25;45.63;;;;;;;10.97;71.94;99531.13;6126416;22;97022;-81
2024/03/01 09:20:44;;;;;;;70.03;43.88;;;;;;;10.98;71.79;99535.44;6127750;22;96749;-81
2024/03/01 09:23:13;;;;;;;78.22;46.42;;;;;;;11.06;71.94;99540.34;6142782;22;98079;-84
2024/03/01 09:25:48;;;;;;;82.60;47.20;;;;;;;11.27;71.77;99536.66;6128145;22;100376;-81
2024/03/01 09:28:22;;;;;;;71.90;44.88;;;;;;;11.29;70.82;99521.69;6152649;22;96748;-80
2024/03/01 09:30:51;;;;;;;74.38;43.10;;;;;;;11.29;71.01;99542.69;6129116;22;96919;-80
2024/03/01 09:33:18;;;;;;;70.95;42.22;;;;;;;11.38;70.76;99540.53;6178427;22;97378;-81
2024/03/01 09:35:44;;;;;;;64.90;40.53;;;;;;;11.34;70.21;99529.31;6127393;22;100404;-84
2024/03/01 09:38:12;;;;;;;72.95;42.67;;;;;;;11.39;70.05;99526.47;6179246;22;96699;-81
2024/03/01 09:41:02;;;;;;;66.53;41.30;;;;;;;11.66;70.00;99543.47;6126655;22;96941;-82
2024/03/01 09:43:46;;;;;;;66.38;41.40;;;;;;;11.57;69.95;99549.19;6151229;22;98680;-82
2024/03/01 09:46:44;;;;;;;63.35;41.22;;;;;;;11.61;69.33;99544.66;6176550;22;97740;-83
2024/03/01 09:49:35;;;;;;;60.70;38.25;;;;;;;11.49;69.83;99543.47;6152770;22;96732;-84
2024/03/01 09:52:06;;;;;;;75.70;40.97;;;;;;;11.50;70.17;99543.41;6153011;22;97098;-81
2024/03/01 09:54:42;;;;;;;61.58;38.50;;;;;;;11.50;69.96;99540.78;6177412;22;100271;-80
2024/03/01 09:57:51;;;;;;;65.55;39.88;;;;;;;11.64;70.01;99539.25;6153039;22;100948;-81
2024/03/01 10:00:23;;;;;;;67.05;40.22;;;;;;;11.73;69.82;99536.97;6082784;22;96834;-82
2024/03/01 10:03:18;;;;;;;60.50;41.72;;;;;;;11.75;69.84;99540.38;6151263;22;97073;-82
2024/03/01 10:05:43;;;;;;;66.35;40.70;;;;;;;11.74;69.43;99540.44;6151462;22;101983;-83
2024/03/01 10:08:35;;;;;;;65.53;41.22;;;;;;;11.49;69.73;99548.72;6152318;22;100338;-83
2024/03/01 10:11:12;;;;;;;68.75;41.70;;;;;;;11.47;69.69;99545.34;6161874;22;98682;-83
2024/03/01 10:13:52;;;;;;;64.97;41.25;;;;;;;11.48;70.21;99542.63;6151455;22;96838;-82
2024/03/01 10:16:38;;;;;;;73.40;42.47;;;;;;;11.66;69.86;99546.09;6174300;22;100748;-82
2024/03/01 10:19:07;;;;;;;69.15;40.70;;;;;;;11.62;69.88;99546.34;6150602;22;97460;-82
2024/03/01 10:21:42;;;;;;;67.65;41.30;;;;;;;11.51;69.65;99531.94;6150733;22;97011;-83
2024/03/01 10:24:58;;;;;;;70.43;42.38;;;;;;;11.36;69.96;99561.63;6177246;22;96819;-83
2024/03/01 10:27:31;;;;;;;66.80;40.80;;;;;;;11.36;70.61;99555.53;6111108;22;98057;-82
2024/03/01 10:30:09;;;;;;;65.60;43.08;;;;;;;11.39;70.59;99553.59;6151042;22;97460;-82
2024/03/01 10:32:34;;;;;;;72.45;43.40;;;;;;;11.51;70.68;99554.75;6152662;22;97207;-83
2024/03/01 10:35:09;;;;;;;66.15;43.08;;;;;;;11.33;71.01;99536.34;6178891;22;97120;-85
2024/03/01 10:37:41;;;;;;;67.15;41.13;;;;;;;11.44;70.70;99556.84;6145221;22;100753;-82
2024/03/01 10:40:19;;;;;;;65.95;41.05;;;;;;;11.43;71.10;99559.53;6173569;22;97955;-85
2024/03/01 10:42:50;;;;;;;70.22;43.20;;;;;;;11.47;70.50;99545.34;6149229;22;97312;-82
2024/03/01 10:45:20;;;;;;;64.03;39.80;;;;;;;11.48;70.71;99552.28;6148594;22;97222;-83
2024/03/01 10:47:50;;;;;;;68.05;41.78;;;;;;;11.21;70.69;99513.31;6122751;22;100905;-83
2024/03/01 10:50:19;;;;;;;76.50;42.50;;;;;;;11.52;70.88;99548.59;6171344;22;97939;-83
2024/03/01 10:52:54;;;;;;;69.63;42.08;;;;;;;11.70;70.58;99546.81;6175990;22;97073;-85
2024/03/01 10:55:24;;;;;;;63.38;41.45;;;;;;;11.86;69.64;99536.38;6124363;22;97219;-83
2024/03/01 10:58:01;;;;;;;73.60;43.10;;;;;;;11.87;69.46;99541.56;6144143;22;97903;-82
2024/03/01 11:00:28;;;;;;;65.30;40.95;;;;;;;11.78;69.53;99523.59;6143601;22;97738;-84
2024/03/01 11:03:08;;;;;;;63.42;39.83;;;;;;;12.05;69.38;99542.38;6147954;22;97113;-82
2024/03/01 11:05:41;;;;;;;66.47;41.88;;;;;;;11.97;70.28;99539.31;6146393;22;97262;-81
2024/03/01 11:08:22;;;;;;;68.07;41.22;;;;;;;11.91;69.52;99539.63;6144941;22;97418;-83
2024/03/01 11:10:55;;;;;;;65.85;40.85;;;;;;;11.69;69.48;99540.72;6142117;22;100936;-81
2024/03/01 11:13:23;;;;;;;66.53;41.22;;;;;;;11.54;70.29;99528.31;6150473;22;97275;-79
2024/03/01 11:15:49;;;;;;;66.63;40.97;;;;;;;11.71;69.66;99530.94;6150627;22;97050;-78
2024/03/01 11:18:22;;;;;;;78.47;42.60;;;;;;;11.83;69.87;99518.94;6148348;22;100435;-78
2024/03/01 11:21:10;;;;;;;64.30;38.42;;;;;;;11.92;68.81;99518.47;6172747;22;97888;-82
2024/03/01 11:23:42;;;;;;;66.95;39.47;;;;;;;11.93;69.07;99511.47;6148030;22;97172;-79
2024/03/01 11:26:17;;;;;;;62.72;38.22;;;;;;;11.99;68.69;99500.63;6125092;22;97283;-82